Daytona Beach — D5JL6 — position and weather

sailwx.info

Track history (hours):
 
Tides and Currents Weather Stations Pressure Air Temp Water Temp Dewpoint Dewpoint Depression Visibility Wind Speed Wind Dir Waves Ship Positions

Daytona Beach

Last reported at 2018-Jul-01 12:05 UTC. Time now 2018-Jul-18 12:15 UTC.
Position S 40°06' E 173°09'.
Warning: this ship's position is 17 days out of date.

Length 170 m; draft 10.1 m.

Type: Cargo ship. MMSI: 636017133.

Date/timePositionNaut miles runAvg speedWind from/ knotsBaromVisibWave heightAir tempDewpointWater temp
2018-Jul-01 12:05S 40°06' E 173°09'0 6.7
2018-Jul-01 12:01S 40°07' E 173°09'4 6.5
2018-Jul-01 11:22S 40°09' E 173°14'8 7.4
2018-Jul-01 10:17S 40°13' E 173°23'2 6.8
2018-Jul-01 09:57S 40°15' E 173°25'4 7.2
2018-Jul-01 09:23S 40°17' E 173°30'4 7.7
2018-Jul-01 08:54S 40°19' E 173°34'4 8.4
2018-Jul-01 08:26S 40°21' E 173°38'4 8.9
2018-Jul-01 08:00S 40°23' E 173°42'4 8.8
2018-Jul-01 07:31S 40°26' E 173°47'4 8.3
2018-Jul-01 07:01S 40°28' E 173°51'4 8.0
2018-Jul-01 06:30S 40°30' E 173°56'3 6.2
2018-Jul-01 06:01S 40°32' E 173°59'4 7.6
2018-Jul-01 05:31S 40°34' E 174°03'4 8.8
2018-Jul-01 05:01S 40°37' E 174°08'5 9.3
2018-Jul-01 04:30S 40°39' E 174°13'5 9.3
2018-Jul-01 04:01S 40°43' E 174°16'5 9.5
2018-Jul-01 03:30S 40°47' E 174°20'5 9.4
2018-Jul-01 03:00S 40°51' E 174°23'4 9.0
2018-Jul-01 02:31S 40°55' E 174°26'5 9.0
2018-Jul-01 02:00S 40°58' E 174°30'4 8.5
2018-Jul-01 01:31S 41°02' E 174°31'5 9.3
2018-Jul-01 01:01S 41°07' E 174°31'5 9.8
2018-Jul-01 00:30S 41°12' E 174°32'510.0
2018-Jul-01 00:01S 41°17' E 174°32'510.6
2018-Jun-30 23:31S 41°22' E 174°32'510.9
2018-Jun-30 23:01S 41°28' E 174°31'611.2
2018-Jun-30 22:31S 41°33' E 174°31'611.3
2018-Jun-30 22:01S 41°39' E 174°30'611.2
2018-Jun-30 21:31S 41°45' E 174°29'611.1
2018-Jun-30 21:01S 41°50' E 174°27'511.0
2018-Jun-30 20:31S 41°55' E 174°25'510.2
2018-Jun-30 20:01S 41°60' E 174°22'510.0
2018-Jun-30 19:30S 42°04' E 174°20'510.4
2018-Jun-30 19:00S 42°09' E 174°17'611.5
2018-Jun-30 18:31S 42°15' E 174°14'712.3
2018-Jun-30 17:57S 42°21' E 174°11'612.8
2018-Jun-30 17:30S 42°26' E 174°08'  
2018-Jun-27 00:54S 46°39' E 169°45'512.9
2018-Jun-27 00:30S 46°40' E 169°38'612.8
2018-Jun-27 00:00S 46°43' E 169°29'612.6
2018-Jun-26 23:30S 46°43' E 169°20'612.8
2018-Jun-26 23:00S 46°43' E 169°11'612.8
2018-Jun-26 22:30S 46°44' E 169°01'612.9
2018-Jun-26 22:00S 46°43' E 168°52'612.4
2018-Jun-26 21:30S 46°42' E 168°43'612.3
2018-Jun-26 21:00S 46°42' E 168°34'611.6
2018-Jun-26 20:30S 46°41' E 168°26'4 8.0
2018-Jun-26 20:00S 46°39' E 168°21'3 6.5
2018-Jun-26 19:30S 46°36' E 168°21'1 1.0
2018-Jun-26 18:58S 46°35' E 168°20'0 0.0
2018-Jun-26 18:29S 46°35' E 168°20'0 0.0
2018-Jun-26 17:59S 46°35' E 168°20'0 0.0
2018-Jun-26 17:28S 46°35' E 168°20'0 0.0
2018-Jun-26 16:56S 46°35' E 168°20'0 0.0
2018-Jun-26 15:58S 46°35' E 168°20'0 0.0
2018-Jun-26 15:28S 46°35' E 168°20'0 0.0
2018-Jun-26 14:59S 46°35' E 168°20'0 0.0
2018-Jun-26 14:28S 46°35' E 168°20'0 0.0
2018-Jun-26 13:53S 46°35' E 168°20'0 0.0
2018-Jun-26 13:29S 46°35' E 168°20'0 0.0
2018-Jun-26 12:59S 46°35' E 168°20'0 0.0
2018-Jun-26 12:29S 46°35' E 168°20'0 0.0
2018-Jun-26 11:58S 46°35' E 168°20'0 0.0
2018-Jun-26 11:29S 46°35' E 168°20'0 0.0
2018-Jun-26 10:58S 46°35' E 168°20'0 0.0
2018-Jun-26 10:28S 46°35' E 168°20'0 0.0
2018-Jun-26 09:59S 46°35' E 168°20'0 0.0
2018-Jun-26 09:28S 46°35' E 168°20'0 0.0
2018-Jun-26 08:55S 46°35' E 168°20'0 0.0
2018-Jun-26 08:29S 46°35' E 168°20'0 0.0
2018-Jun-26 07:58S 46°35' E 168°20'0 0.0
2018-Jun-26 07:28S 46°35' E 168°20'0 0.0
2018-Jun-26 06:58S 46°35' E 168°20'0 0.0
2018-Jun-26 06:28S 46°35' E 168°20'0 0.0
2018-Jun-26 05:58S 46°35' E 168°20'0 0.0
2018-Jun-26 05:28S 46°35' E 168°20'0 0.0
2018-Jun-26 04:58S 46°35' E 168°20'0 0.0
2018-Jun-26 04:28S 46°35' E 168°20'0 0.0
2018-Jun-26 03:56S 46°35' E 168°20'0 0.0
2018-Jun-26 03:28S 46°35' E 168°20'0 0.0
2018-Jun-26 02:58S 46°35' E 168°20'0 0.0
2018-Jun-26 02:29S 46°35' E 168°20'0 0.0
2018-Jun-26 01:59S 46°35' E 168°20'0 0.0
2018-Jun-26 01:28S 46°35' E 168°20'0 0.0
2018-Jun-26 00:59S 46°35' E 168°20'0 0.0
2018-Jun-26 00:29S 46°35' E 168°20'0 0.0
2018-Jun-25 23:58S 46°35' E 168°20'0 0.0
2018-Jun-25 23:28S 46°35' E 168°20'0 0.0
2018-Jun-25 22:58S 46°35' E 168°20'0 0.0
2018-Jun-25 22:29S 46°35' E 168°20'0 0.0
2018-Jun-25 21:58S 46°35' E 168°20'0 0.0
2018-Jun-25 21:29S 46°35' E 168°20'0 0.0
2018-Jun-25 20:59S 46°35' E 168°20'0 0.0
2018-Jun-25 20:28S 46°35' E 168°20'0 0.0
2018-Jun-25 19:58S 46°35' E 168°20'0 0.0
2018-Jun-25 19:29S 46°35' E 168°20'0 0.0
2018-Jun-25 18:59S 46°35' E 168°20'0 0.0
2018-Jun-25 18:28S 46°35' E 168°20'0 0.0
2018-Jun-25 17:58S 46°35' E 168°20'0 0.0
2018-Jun-25 17:28S 46°35' E 168°20'0 0.0
2018-Jun-25 16:59S 46°35' E 168°20'0 0.0
2018-Jun-25 16:29S 46°35' E 168°20'0 0.0
2018-Jun-25 15:59S 46°35' E 168°20'0 0.0
2018-Jun-25 15:29S 46°35' E 168°20'0 0.0
2018-Jun-25 14:56S 46°35' E 168°20'0 0.0
2018-Jun-25 14:29S 46°35' E 168°20'0 0.0
2018-Jun-25 13:58S 46°35' E 168°20'0 0.0
2018-Jun-25 13:28S 46°35' E 168°20'0 0.0
2018-Jun-25 12:58S 46°35' E 168°20'0 0.0
2018-Jun-25 12:28S 46°35' E 168°20'0 0.0
2018-Jun-25 11:59S 46°35' E 168°20'0 0.0
2018-Jun-25 11:23S 46°35' E 168°20'0 0.0
2018-Jun-25 10:59S 46°35' E 168°20'0 0.0
2018-Jun-25 10:28S 46°35' E 168°20'0 0.0
2018-Jun-25 09:59S 46°35' E 168°20'0 0.0
2018-Jun-25 09:29S 46°35' E 168°20'0 0.0
2018-Jun-25 08:59S 46°35' E 168°20'0 0.0
2018-Jun-25 08:29S 46°35' E 168°20'0 0.0
2018-Jun-25 07:58S 46°35' E 168°20'0 0.0
2018-Jun-25 07:29S 46°35' E 168°20'0 0.0
2018-Jun-25 06:59S 46°35' E 168°20'0 0.0
2018-Jun-25 06:29S 46°35' E 168°20'0 0.0
2018-Jun-25 05:59S 46°35' E 168°20'0 0.0
2018-Jun-25 05:28S 46°35' E 168°20'0 0.0
2018-Jun-25 04:56S 46°35' E 168°20'0 0.0
2018-Jun-25 04:29S 46°35' E 168°20'0 0.0
2018-Jun-25 03:59S 46°35' E 168°20'0 0.0
2018-Jun-25 03:28S 46°35' E 168°20'0 0.0
2018-Jun-25 02:59S 46°35' E 168°20'0 0.0
2018-Jun-25 02:28S 46°35' E 168°20'0 0.0
2018-Jun-25 01:56S 46°35' E 168°20'0 0.0
2018-Jun-25 01:29S 46°35' E 168°20'0 0.0
2018-Jun-25 00:59S 46°35' E 168°20'0 0.0
2018-Jun-25 00:29S 46°35' E 168°20'0 0.0
2018-Jun-24 23:58S 46°35' E 168°20'0 0.0
2018-Jun-24 23:29S 46°35' E 168°20'0 0.0
2018-Jun-24 22:58S 46°35' E 168°20'0 0.0
2018-Jun-24 22:29S 46°35' E 168°20'0 0.0
2018-Jun-24 21:59S 46°35' E 168°20'0 0.0
2018-Jun-24 21:29S 46°35' E 168°20'0 0.0
2018-Jun-24 20:59S 46°35' E 168°20'0 0.0
2018-Jun-24 20:29S 46°35' E 168°20'0 0.0
2018-Jun-24 19:59S 46°35' E 168°20'0 0.0
2018-Jun-24 19:26S 46°35' E 168°20'0 0.0
2018-Jun-24 18:59S 46°35' E 168°20'0 0.0
2018-Jun-24 18:29S 46°35' E 168°20'0 0.0
2018-Jun-24 17:58S 46°35' E 168°20'0 0.0
2018-Jun-24 17:28S 46°35' E 168°20'0 0.0
2018-Jun-24 16:58S 46°35' E 168°20'0 0.0
2018-Jun-24 16:28S 46°35' E 168°20'0 0.0
2018-Jun-24 15:59S 46°35' E 168°20'0 0.0
2018-Jun-24 15:25S 46°35' E 168°20'0 0.0
2018-Jun-24 14:58S 46°35' E 168°20'0 0.0
2018-Jun-24 14:28S 46°35' E 168°20'0 0.0
2018-Jun-24 13:58S 46°35' E 168°20'0 0.0
2018-Jun-24 13:28S 46°35' E 168°20'0 0.0
2018-Jun-24 12:58S 46°35' E 168°20'0 0.0
2018-Jun-24 12:28S 46°35' E 168°20'0 0.0
2018-Jun-24 11:58S 46°35' E 168°20'0 0.0
2018-Jun-24 11:29S 46°35' E 168°20'0 0.0
2018-Jun-24 10:59S 46°35' E 168°20'0 0.0
2018-Jun-24 10:28S 46°35' E 168°20'0 0.0
2018-Jun-24 09:59S 46°35' E 168°20'0 0.0
2018-Jun-24 09:29S 46°35' E 168°20'0 0.0
2018-Jun-24 08:59S 46°35' E 168°20'0 0.0
2018-Jun-24 08:28S 46°35' E 168°20'0 0.0
2018-Jun-24 07:59S 46°35' E 168°20'0 0.0
2018-Jun-24 07:29S 46°35' E 168°20'0 0.0
2018-Jun-24 06:58S 46°35' E 168°20'0 0.0
2018-Jun-24 06:29S 46°35' E 168°20'0 0.0
2018-Jun-24 05:59S 46°35' E 168°20'0 0.0
2018-Jun-24 05:29S 46°35' E 168°20'0 0.0
2018-Jun-24 04:58S 46°35' E 168°20'0 0.0
2018-Jun-24 04:28S 46°35' E 168°20'0 0.0
2018-Jun-24 03:59S 46°35' E 168°20'0 0.0
2018-Jun-24 03:29S 46°35' E 168°20'0 0.0
2018-Jun-24 02:58S 46°35' E 168°20'0 0.0
2018-Jun-24 02:28S 46°35' E 168°20'0 0.0
2018-Jun-24 01:58S 46°35' E 168°20'0 0.0
2018-Jun-24 01:29S 46°35' E 168°20'0 0.0
2018-Jun-24 00:58S 46°35' E 168°20'0 0.0
2018-Jun-24 00:29S 46°35' E 168°20'0 0.0
2018-Jun-23 23:59S 46°35' E 168°20'0 0.0
2018-Jun-23 23:28S 46°35' E 168°20'0 0.0
2018-Jun-23 22:58S 46°35' E 168°20'0 0.0
2018-Jun-23 22:29S 46°35' E 168°20'0 0.0
2018-Jun-23 21:59S 46°35' E 168°20'0 0.0
2018-Jun-23 21:29S 46°35' E 168°20'0 0.0
2018-Jun-23 20:58S 46°35' E 168°20'0 0.0
2018-Jun-23 20:28S 46°35' E 168°20'0 0.0
2018-Jun-23 19:59S 46°35' E 168°20'0 0.0
2018-Jun-23 19:26S 46°35' E 168°20'0 0.0
2018-Jun-23 18:59S 46°35' E 168°20'0 0.0
2018-Jun-23 18:28S 46°35' E 168°20'0 0.0
2018-Jun-23 17:58S 46°35' E 168°20'0 0.0
2018-Jun-23 17:23S 46°35' E 168°20'0 0.0
2018-Jun-23 16:59S 46°35' E 168°20'0 0.0
2018-Jun-23 16:28S 46°35' E 168°20'0 0.0
2018-Jun-23 15:58S 46°35' E 168°20'0 0.0
2018-Jun-23 15:26S 46°35' E 168°20'0 0.0
2018-Jun-23 14:58S 46°35' E 168°20'0 0.0
2018-Jun-23 14:28S 46°35' E 168°20'0 0.0
2018-Jun-23 13:59S 46°35' E 168°20'0 0.0
2018-Jun-23 13:29S 46°35' E 168°20'0 0.0
2018-Jun-23 12:59S 46°35' E 168°20'0 0.0
2018-Jun-23 12:26S 46°35' E 168°20'1 1.3
2018-Jun-23 12:00S 46°36' E 168°21'2 4.1
2018-Jun-23 11:30S 46°38' E 168°21'3 6.7
2018-Jun-23 11:01S 46°39' E 168°17'0 0.4
2018-Jun-23 10:29S 46°39' E 168°17'0 0.1
2018-Jun-23 09:59S 46°39' E 168°17'0 0.0
2018-Jun-23 09:29S 46°39' E 168°17'0 0.0
2018-Jun-23 08:59S 46°39' E 168°17'0 0.0
2018-Jun-23 08:29S 46°39' E 168°17'0 0.0
2018-Jun-23 07:59S 46°39' E 168°17'0 0.0
2018-Jun-23 07:29S 46°39' E 168°17'0 0.1
2018-Jun-23 06:59S 46°39' E 168°17'0 0.1
2018-Jun-23 06:26S 46°39' E 168°17'0 0.1
2018-Jun-23 05:59S 46°39' E 168°17'0 0.0
2018-Jun-23 05:29S 46°39' E 168°17'0 0.2
2018-Jun-23 04:59S 46°39' E 168°17'0 0.2
2018-Jun-23 04:29S 46°39' E 168°17'0 0.1
2018-Jun-23 03:59S 46°39' E 168°17'0 0.0
2018-Jun-23 03:26S 46°39' E 168°17'0 0.0
2018-Jun-23 02:59S 46°39' E 168°17'0 0.0
2018-Jun-23 02:29S 46°39' E 168°17'1 2.7
2018-Jun-23 02:00S 46°40' E 168°18'4 8.3
2018-Jun-23 01:30S 46°41' E 168°24'612.5
2018-Jun-23 01:00S 46°42' E 168°33'612.8
2018-Jun-23 00:30S 46°41' E 168°42'612.0
2018-Jun-23 00:00S 46°43' E 168°51'611.3
2018-Jun-22 23:30S 46°44' E 168°59'611.6
2018-Jun-22 23:00S 46°43' E 169°07'611.7
2018-Jun-22 22:30S 46°44' E 169°16'611.9
2018-Jun-22 22:00S 46°43' E 169°24'612.0
2018-Jun-22 21:30S 46°42' E 169°33'612.2
2018-Jun-22 21:00S 46°40' E 169°41'34312.3
2018-Jun-21 17:07S 41°60' E 174°19'212.9
2018-Jun-21 16:56S 41°58' E 174°20'613.1
2018-Jun-21 16:30S 41°53' E 174°22'612.8
2018-Jun-21 16:00S 41°46' E 174°25'612.1
2018-Jun-21 15:30S 41°41' E 174°27'612.1
2018-Jun-21 15:00S 41°35' E 174°27'611.7
2018-Jun-21 14:30S 41°29' E 174°27'510.7
2018-Jun-21 14:00S 41°23' E 174°28'510.3
2018-Jun-21 13:30S 41°18' E 174°28'510.6
2018-Jun-21 13:00S 41°13' E 174°30'510.9
2018-Jun-21 12:30S 41°08' E 174°30'  
Track history (hours):
 
Tides and Currents Weather Stations Pressure Air Temp Water Temp Dewpoint Dewpoint Depression Visibility Wind Speed Wind Dir Waves Ship Positions

Daytona Beach

Last reported at 2018-Jul-01 12:05 UTC. Time now 2018-Jul-18 12:15 UTC.
Position S 40°06' E 173°09'.
Warning: this ship's position is 17 days out of date.

Length 170 m; draft 10.1 m.

Type: Cargo ship. MMSI: 636017133.

Date/timePositionNaut miles runAvg speedWind from/ knotsBaromVisibWave heightAir tempDewpointWater temp
2018-Jul-01 12:05S 40°06' E 173°09'0 6.7
2018-Jul-01 12:01S 40°07' E 173°09'4 6.5
2018-Jul-01 11:22S 40°09' E 173°14'8 7.4
2018-Jul-01 10:17S 40°13' E 173°23'2 6.8
2018-Jul-01 09:57S 40°15' E 173°25'4 7.2
2018-Jul-01 09:23S 40°17' E 173°30'4 7.7
2018-Jul-01 08:54S 40°19' E 173°34'4 8.4
2018-Jul-01 08:26S 40°21' E 173°38'4 8.9
2018-Jul-01 08:00S 40°23' E 173°42'4 8.8
2018-Jul-01 07:31S 40°26' E 173°47'4 8.3
2018-Jul-01 07:01S 40°28' E 173°51'4 8.0
2018-Jul-01 06:30S 40°30' E 173°56'3 6.2
2018-Jul-01 06:01S 40°32' E 173°59'4 7.6
2018-Jul-01 05:31S 40°34' E 174°03'4 8.8
2018-Jul-01 05:01S 40°37' E 174°08'5 9.3
2018-Jul-01 04:30S 40°39' E 174°13'5 9.3
2018-Jul-01 04:01S 40°43' E 174°16'5 9.5
2018-Jul-01 03:30S 40°47' E 174°20'5 9.4
2018-Jul-01 03:00S 40°51' E 174°23'4 9.0
2018-Jul-01 02:31S 40°55' E 174°26'5 9.0
2018-Jul-01 02:00S 40°58' E 174°30'4 8.5
2018-Jul-01 01:31S 41°02' E 174°31'5 9.3
2018-Jul-01 01:01S 41°07' E 174°31'5 9.8
2018-Jul-01 00:30S 41°12' E 174°32'510.0
2018-Jul-01 00:01S 41°17' E 174°32'510.6
2018-Jun-30 23:31S 41°22' E 174°32'510.9
2018-Jun-30 23:01S 41°28' E 174°31'611.2
2018-Jun-30 22:31S 41°33' E 174°31'611.3
2018-Jun-30 22:01S 41°39' E 174°30'611.2
2018-Jun-30 21:31S 41°45' E 174°29'611.1
2018-Jun-30 21:01S 41°50' E 174°27'511.0
2018-Jun-30 20:31S 41°55' E 174°25'510.2
2018-Jun-30 20:01S 41°60' E 174°22'510.0
2018-Jun-30 19:30S 42°04' E 174°20'510.4
2018-Jun-30 19:00S 42°09' E 174°17'611.5
2018-Jun-30 18:31S 42°15' E 174°14'712.3
2018-Jun-30 17:57S 42°21' E 174°11'612.8
2018-Jun-30 17:30S 42°26' E 174°08'  
2018-Jun-27 00:54S 46°39' E 169°45'512.9
2018-Jun-27 00:30S 46°40' E 169°38'612.8
2018-Jun-27 00:00S 46°43' E 169°29'612.6
2018-Jun-26 23:30S 46°43' E 169°20'612.8
2018-Jun-26 23:00S 46°43' E 169°11'612.8
2018-Jun-26 22:30S 46°44' E 169°01'612.9
2018-Jun-26 22:00S 46°43' E 168°52'612.4
2018-Jun-26 21:30S 46°42' E 168°43'612.3
2018-Jun-26 21:00S 46°42' E 168°34'611.6
2018-Jun-26 20:30S 46°41' E 168°26'4 8.0
2018-Jun-26 20:00S 46°39' E 168°21'3 6.5
2018-Jun-26 19:30S 46°36' E 168°21'1 1.0
2018-Jun-26 18:58S 46°35' E 168°20'0 0.0
2018-Jun-26 18:29S 46°35' E 168°20'0 0.0
2018-Jun-26 17:59S 46°35' E 168°20'0 0.0
2018-Jun-26 17:28S 46°35' E 168°20'0 0.0
2018-Jun-26 16:56S 46°35' E 168°20'0 0.0
2018-Jun-26 15:58S 46°35' E 168°20'0 0.0
2018-Jun-26 15:28S 46°35' E 168°20'0 0.0
2018-Jun-26 14:59S 46°35' E 168°20'0 0.0
2018-Jun-26 14:28S 46°35' E 168°20'0 0.0
2018-Jun-26 13:53S 46°35' E 168°20'0 0.0
2018-Jun-26 13:29S 46°35' E 168°20'0 0.0
2018-Jun-26 12:59S 46°35' E 168°20'0 0.0
2018-Jun-26 12:29S 46°35' E 168°20'0 0.0
2018-Jun-26 11:58S 46°35' E 168°20'0 0.0
2018-Jun-26 11:29S 46°35' E 168°20'0 0.0
2018-Jun-26 10:58S 46°35' E 168°20'0 0.0
2018-Jun-26 10:28S 46°35' E 168°20'0 0.0
2018-Jun-26 09:59S 46°35' E 168°20'0 0.0
2018-Jun-26 09:28S 46°35' E 168°20'0 0.0
2018-Jun-26 08:55S 46°35' E 168°20'0 0.0
2018-Jun-26 08:29S 46°35' E 168°20'0 0.0
2018-Jun-26 07:58S 46°35' E 168°20'0 0.0
2018-Jun-26 07:28S 46°35' E 168°20'0 0.0
2018-Jun-26 06:58S 46°35' E 168°20'0 0.0
2018-Jun-26 06:28S 46°35' E 168°20'0 0.0
2018-Jun-26 05:58S 46°35' E 168°20'0 0.0
2018-Jun-26 05:28S 46°35' E 168°20'0 0.0
2018-Jun-26 04:58S 46°35' E 168°20'0 0.0
2018-Jun-26 04:28S 46°35' E 168°20'0 0.0
2018-Jun-26 03:56S 46°35' E 168°20'0 0.0
2018-Jun-26 03:28S 46°35' E 168°20'0 0.0
2018-Jun-26 02:58S 46°35' E 168°20'0 0.0
2018-Jun-26 02:29S 46°35' E 168°20'0 0.0
2018-Jun-26 01:59S 46°35' E 168°20'0 0.0
2018-Jun-26 01:28S 46°35' E 168°20'0 0.0
2018-Jun-26 00:59S 46°35' E 168°20'0 0.0
2018-Jun-26 00:29S 46°35' E 168°20'0 0.0
2018-Jun-25 23:58S 46°35' E 168°20'0 0.0
2018-Jun-25 23:28S 46°35' E 168°20'0 0.0
2018-Jun-25 22:58S 46°35' E 168°20'0 0.0
2018-Jun-25 22:29S 46°35' E 168°20'0 0.0
2018-Jun-25 21:58S 46°35' E 168°20'0 0.0
2018-Jun-25 21:29S 46°35' E 168°20'0 0.0
2018-Jun-25 20:59S 46°35' E 168°20'0 0.0
2018-Jun-25 20:28S 46°35' E 168°20'0 0.0
2018-Jun-25 19:58S 46°35' E 168°20'0 0.0
2018-Jun-25 19:29S 46°35' E 168°20'0 0.0
2018-Jun-25 18:59S 46°35' E 168°20'0 0.0
2018-Jun-25 18:28S 46°35' E 168°20'0 0.0
2018-Jun-25 17:58S 46°35' E 168°20'0 0.0
2018-Jun-25 17:28S 46°35' E 168°20'0 0.0
2018-Jun-25 16:59S 46°35' E 168°20'0 0.0
2018-Jun-25 16:29S 46°35' E 168°20'0 0.0
2018-Jun-25 15:59S 46°35' E 168°20'0 0.0
2018-Jun-25 15:29S 46°35' E 168°20'0 0.0
2018-Jun-25 14:56S 46°35' E 168°20'0 0.0
2018-Jun-25 14:29S 46°35' E 168°20'0 0.0
2018-Jun-25 13:58S 46°35' E 168°20'0 0.0
2018-Jun-25 13:28S 46°35' E 168°20'0 0.0
2018-Jun-25 12:58S 46°35' E 168°20'0 0.0
2018-Jun-25 12:28S 46°35' E 168°20'0 0.0
2018-Jun-25 11:59S 46°35' E 168°20'0 0.0
2018-Jun-25 11:23S 46°35' E 168°20'0 0.0
2018-Jun-25 10:59S 46°35' E 168°20'0 0.0
2018-Jun-25 10:28S 46°35' E 168°20'0 0.0
2018-Jun-25 09:59S 46°35' E 168°20'0 0.0
2018-Jun-25 09:29S 46°35' E 168°20'0 0.0
2018-Jun-25 08:59S 46°35' E 168°20'0 0.0
2018-Jun-25 08:29S 46°35' E 168°20'0 0.0
2018-Jun-25 07:58S 46°35' E 168°20'0 0.0
2018-Jun-25 07:29S 46°35' E 168°20'0 0.0
2018-Jun-25 06:59S 46°35' E 168°20'0 0.0
2018-Jun-25 06:29S 46°35' E 168°20'0 0.0
2018-Jun-25 05:59S 46°35' E 168°20'0 0.0
2018-Jun-25 05:28S 46°35' E 168°20'0 0.0
2018-Jun-25 04:56S 46°35' E 168°20'0 0.0
2018-Jun-25 04:29S 46°35' E 168°20'0 0.0
2018-Jun-25 03:59S 46°35' E 168°20'0 0.0
2018-Jun-25 03:28S 46°35' E 168°20'0 0.0
2018-Jun-25 02:59S 46°35' E 168°20'0 0.0
2018-Jun-25 02:28S 46°35' E 168°20'0 0.0
2018-Jun-25 01:56S 46°35' E 168°20'0 0.0
2018-Jun-25 01:29S 46°35' E 168°20'0 0.0
2018-Jun-25 00:59S 46°35' E 168°20'0 0.0
2018-Jun-25 00:29S 46°35' E 168°20'0 0.0
2018-Jun-24 23:58S 46°35' E 168°20'0 0.0
2018-Jun-24 23:29S 46°35' E 168°20'0 0.0
2018-Jun-24 22:58S 46°35' E 168°20'0 0.0
2018-Jun-24 22:29S 46°35' E 168°20'0 0.0
2018-Jun-24 21:59S 46°35' E 168°20'0 0.0
2018-Jun-24 21:29S 46°35' E 168°20'0 0.0
2018-Jun-24 20:59S 46°35' E 168°20'0 0.0
2018-Jun-24 20:29S 46°35' E 168°20'0 0.0
2018-Jun-24 19:59S 46°35' E 168°20'0 0.0
2018-Jun-24 19:26S 46°35' E 168°20'0 0.0
2018-Jun-24 18:59S 46°35' E 168°20'0 0.0
2018-Jun-24 18:29S 46°35' E 168°20'0 0.0
2018-Jun-24 17:58S 46°35' E 168°20'0 0.0
2018-Jun-24 17:28S 46°35' E 168°20'0 0.0
2018-Jun-24 16:58S 46°35' E 168°20'0 0.0
2018-Jun-24 16:28S 46°35' E 168°20'0 0.0
2018-Jun-24 15:59S 46°35' E 168°20'0 0.0
2018-Jun-24 15:25S 46°35' E 168°20'0 0.0
2018-Jun-24 14:58S 46°35' E 168°20'0 0.0
2018-Jun-24 14:28S 46°35' E 168°20'0 0.0
2018-Jun-24 13:58S 46°35' E 168°20'0 0.0
2018-Jun-24 13:28S 46°35' E 168°20'0 0.0
2018-Jun-24 12:58S 46°35' E 168°20'0 0.0
2018-Jun-24 12:28S 46°35' E 168°20'0 0.0
2018-Jun-24 11:58S 46°35' E 168°20'0 0.0
2018-Jun-24 11:29S 46°35' E 168°20'0 0.0
2018-Jun-24 10:59S 46°35' E 168°20'0 0.0
2018-Jun-24 10:28S 46°35' E 168°20'0 0.0
2018-Jun-24 09:59S 46°35' E 168°20'0 0.0
2018-Jun-24 09:29S 46°35' E 168°20'0 0.0
2018-Jun-24 08:59S 46°35' E 168°20'0 0.0
2018-Jun-24 08:28S 46°35' E 168°20'0 0.0
2018-Jun-24 07:59S 46°35' E 168°20'0 0.0
2018-Jun-24 07:29S 46°35' E 168°20'0 0.0
2018-Jun-24 06:58S 46°35' E 168°20'0 0.0
2018-Jun-24 06:29S 46°35' E 168°20'0 0.0
2018-Jun-24 05:59S 46°35' E 168°20'0 0.0
2018-Jun-24 05:29S 46°35' E 168°20'0 0.0
2018-Jun-24 04:58S 46°35' E 168°20'0 0.0
2018-Jun-24 04:28S 46°35' E 168°20'0 0.0
2018-Jun-24 03:59S 46°35' E 168°20'0 0.0
2018-Jun-24 03:29S 46°35' E 168°20'0 0.0
2018-Jun-24 02:58S 46°35' E 168°20'0 0.0
2018-Jun-24 02:28S 46°35' E 168°20'0 0.0
2018-Jun-24 01:58S 46°35' E 168°20'0 0.0
2018-Jun-24 01:29S 46°35' E 168°20'0 0.0
2018-Jun-24 00:58S 46°35' E 168°20'0 0.0
2018-Jun-24 00:29S 46°35' E 168°20'0 0.0
2018-Jun-23 23:59S 46°35' E 168°20'0 0.0
2018-Jun-23 23:28S 46°35' E 168°20'0 0.0
2018-Jun-23 22:58S 46°35' E 168°20'0 0.0
2018-Jun-23 22:29S 46°35' E 168°20'0 0.0
2018-Jun-23 21:59S 46°35' E 168°20'0 0.0
2018-Jun-23 21:29S 46°35' E 168°20'0 0.0
2018-Jun-23 20:58S 46°35' E 168°20'0 0.0
2018-Jun-23 20:28S 46°35' E 168°20'0 0.0
2018-Jun-23 19:59S 46°35' E 168°20'0 0.0
2018-Jun-23 19:26S 46°35' E 168°20'0 0.0
2018-Jun-23 18:59S 46°35' E 168°20'0 0.0
2018-Jun-23 18:28S 46°35' E 168°20'0 0.0
2018-Jun-23 17:58S 46°35' E 168°20'0 0.0
2018-Jun-23 17:23S 46°35' E 168°20'0 0.0
2018-Jun-23 16:59S 46°35' E 168°20'0 0.0
2018-Jun-23 16:28S 46°35' E 168°20'0 0.0
2018-Jun-23 15:58S 46°35' E 168°20'0 0.0
2018-Jun-23 15:26S 46°35' E 168°20'0 0.0
2018-Jun-23 14:58S 46°35' E 168°20'0 0.0
2018-Jun-23 14:28S 46°35' E 168°20'0 0.0
2018-Jun-23 13:59S 46°35' E 168°20'0 0.0
2018-Jun-23 13:29S 46°35' E 168°20'0 0.0
2018-Jun-23 12:59S 46°35' E 168°20'0 0.0
2018-Jun-23 12:26S 46°35' E 168°20'1 1.3
2018-Jun-23 12:00S 46°36' E 168°21'2 4.1
2018-Jun-23 11:30S 46°38' E 168°21'3 6.7
2018-Jun-23 11:01S 46°39' E 168°17'0 0.4
2018-Jun-23 10:29S 46°39' E 168°17'0 0.1
2018-Jun-23 09:59S 46°39' E 168°17'0 0.0
2018-Jun-23 09:29S 46°39' E 168°17'0 0.0
2018-Jun-23 08:59S 46°39' E 168°17'0 0.0
2018-Jun-23 08:29S 46°39' E 168°17'0 0.0
2018-Jun-23 07:59S 46°39' E 168°17'0 0.0
2018-Jun-23 07:29S 46°39' E 168°17'0 0.1
2018-Jun-23 06:59S 46°39' E 168°17'0 0.1
2018-Jun-23 06:26S 46°39' E 168°17'0 0.1
2018-Jun-23 05:59S 46°39' E 168°17'0 0.0
2018-Jun-23 05:29S 46°39' E 168°17'0 0.2
2018-Jun-23 04:59S 46°39' E 168°17'0 0.2
2018-Jun-23 04:29S 46°39' E 168°17'0 0.1
2018-Jun-23 03:59S 46°39' E 168°17'0 0.0
2018-Jun-23 03:26S 46°39' E 168°17'0 0.0
2018-Jun-23 02:59S 46°39' E 168°17'0 0.0
2018-Jun-23 02:29S 46°39' E 168°17'1 2.7
2018-Jun-23 02:00S 46°40' E 168°18'4 8.3
2018-Jun-23 01:30S 46°41' E 168°24'612.5
2018-Jun-23 01:00S 46°42' E 168°33'612.8
2018-Jun-23 00:30S 46°41' E 168°42'612.0
2018-Jun-23 00:00S 46°43' E 168°51'611.3
2018-Jun-22 23:30S 46°44' E 168°59'611.6
2018-Jun-22 23:00S 46°43' E 169°07'611.7
2018-Jun-22 22:30S 46°44' E 169°16'611.9
2018-Jun-22 22:00S 46°43' E 169°24'612.0
2018-Jun-22 21:30S 46°42' E 169°33'612.2
2018-Jun-22 21:00S 46°40' E 169°41'34312.3
2018-Jun-21 17:07S 41°60' E 174°19'212.9
2018-Jun-21 16:56S 41°58' E 174°20'613.1
2018-Jun-21 16:30S 41°53' E 174°22'612.8
2018-Jun-21 16:00S 41°46' E 174°25'612.1
2018-Jun-21 15:30S 41°41' E 174°27'612.1
2018-Jun-21 15:00S 41°35' E 174°27'611.7
2018-Jun-21 14:30S 41°29' E 174°27'510.7
2018-Jun-21 14:00S 41°23' E 174°28'510.3
2018-Jun-21 13:30S 41°18' E 174°28'510.6
2018-Jun-21 13:00S 41°13' E 174°30'510.9
2018-Jun-21 12:30S 41°08' E 174°30'  

Dump ship's entire track history